Skip Navigation Links
NOAA logo - Click to go to the NOAA homepage
NOAA's National Weather Service
Alaska Aviation Weather Unit
  NWS logo - Click to go to the NWS homepage
Left Navbar Graphic     15 AKDT = 23 GMT

   
NOAA is celebrating 200 years of science, service, and stewardship. Visit the NOAA 200th celebration Web site to learn more.
USA.gov is the U.S. Government's official Web portal to all Federal, state and local government Web resources and services.
Facebook
NWS on Facebook

AAWU Home :: Display TAF Add Bookmark
TAF PASN 282343Z 2900/2924 12012KT P6SM SCT020
     FM290600 13015KT P6SM OVC015
     FM291200 10020G30KT 4SM -RA SCT008 OVC015=
PASN 281720Z AUTO 13006KT 1SM BR VV002 01/01 A2983=

PASN 281726Z AUTO 14007KT 4SM BR OVC002 01/01 A2983=

METAR PASN 281753Z AUTO 16006KT 10SM OVC003 01/01 A2983 RMK AO2 SLP102
     T00110011 10011 20006 57005 TSNO=

METAR PASN 281853Z AUTO 11008KT 7SM OVC004 01/01 A2982 RMK AO2 SLP097
     T00110006 TSNO=

METAR PASN 281953Z AUTO 12009KT 10SM BKN003 OVC012 02/01 A2981 RMK AO2
     SLP094 T00220011 TSNO=

PASN 282002Z AUTO 12008KT 10SM SCT003 OVC012 02/01 A2981=

METAR PASN 282053Z AUTO 14008KT 10SM OVC012 03/01 A2979 RMK AO2
 SLP090 T00330006 56012 TSNO=

PASN 282121Z AUTO 14010KT 10SM OVC016 03/01 A2979=

PASN 282134Z AUTO 12010KT 10SM FEW009 OVC017 03/01 A2979=

PASN 282151Z AUTO 12011KT 10SM FEW007 BKN011 OVC022 03/01 A2978=

METAR PASN 282153Z AUTO 12010KT 10SM SCT007 BKN015 OVC022 03/01
 A2978 RMK AO2 SLP087 T00330011 TSNO=

PASN 282200Z AUTO 12011KT 10SM FEW007 BKN014 OVC022 03/02 A2978=

PASN 282208Z AUTO 12011KT 10SM FEW012 BKN020 OVC025 03/01 A2978=

METAR PASN 282253Z AUTO 12011KT 10SM BKN021 04/01 A2977 RMK AO2 SLP081
     T00390011 TSNO=

PASN 282307Z AUTO 12011KT 10SM SCT021 04/01 A2976=


NOAA's National Weather Service
Alaska Aviation Weather Unit
6930 Sand Lake Road
Anchorage, AK 99502-1845
Disclaimer
Credits
Glossary
Privacy Policy
About Us
Career Opportunities
Contact AAWU Internet Services Site last modified: April, 17th 2012